»·PEaware :: N567B PABR-CYEV

N567B :: PABR-CYEV

FLIGHT INFORMATION

Flight Status: Arrived
Operator: Privately registered:
United States
More flights under this callsign
Pilot: Nigam P. (15980)
Aircraft: BEECH AIRCRAFT SUPER KING AIR 350
(B350)
More flights by this aircraft type
Origin: PABR Wiley Post-Will Rogers Meml
United States
Destination: CYEV Zubko
Canada
More flights between these airports :: More routes between these airports
Route: BRW J507 SCC ARBEZ HARVZ
File this flight plan on PilotEdge
Remarks:
Altitude:
(Current/Filed)
29,000ft
Speed:
(Current/Filed)
300kts
Departed: 30-Jul-20 09:20 AM
Arrived: 30-Jul-20 11:10 AM
Distance/Time
Traveled:
510nm/1:50
Distance/Time
To Go:
Arrived

Flight Plot

Page will automatically refresh every two minutes.


Map Options




Map Legend


Flown Route
Filed Route
Departure Airport
Arrival Airport
Navaid (VOR, NDB)
Fix

Horizontal Profiles

Position Reports

Time Latitude Longitude Heading Altitude Ground
Speed
30-Jul-20 09:11 35.238265 -120.639030 182 216ft 0kts
30-Jul-20 09:12 35.238264 -120.639030 182 216ft 0kts
30-Jul-20 09:14 71.287516 -156.782611 359 48ft 0kts
30-Jul-20 09:15 71.287566 -156.782542 43 48ft 4kts
30-Jul-20 09:16 71.286869 -156.765971 91 48ft 30kts
30-Jul-20 09:17 71.285934 -156.753998 179 48ft 0kts
30-Jul-20 09:18 71.285431 -156.754682 270 48ft 0kts
30-Jul-20 09:19 71.285502 -156.807918 269 204ft 144kts
30-Jul-20 09:20 71.311419 -156.887749 6 1292ft 167kts
30-Jul-20 09:21 71.352772 -156.796840 42 2919ft 192kts
30-Jul-20 09:22 71.348611 -156.645946 133 4749ft 208kts
30-Jul-20 09:23 71.310231 -156.494075 134 6596ft 231kts
30-Jul-20 09:25 71.270212 -156.333743 134 8397ft 236kts
30-Jul-20 09:26 71.229870 -156.171107 134 10188ft 240kts
30-Jul-20 09:27 71.197307 -155.993697 120 11904ft 252kts
30-Jul-20 09:28 71.172667 -155.776187 114 13747ft 262kts
30-Jul-20 09:29 71.151891 -155.556359 114 15498ft 268kts
30-Jul-20 09:30 71.130088 -155.333475 115 17300ft 272kts
30-Jul-20 09:31 71.107321 -155.108760 116 19097ft 276kts
30-Jul-20 09:32 71.084460 -154.880992 117 20895ft 279kts
30-Jul-20 09:33 71.061761 -154.651768 117 22693ft 279kts
30-Jul-20 09:34 71.038875 -154.422482 119 24487ft 282kts
30-Jul-20 09:35 71.015541 -154.190525 120 26284ft 286kts
30-Jul-20 09:36 70.992149 -153.956284 121 28071ft 289kts
30-Jul-20 09:37 70.967763 -153.711378 122 28740ft 312kts
30-Jul-20 09:38 70.940561 -153.458848 122 28730ft 301kts
30-Jul-20 09:39 70.917967 -153.230821 122 28729ft 264kts
30-Jul-20 09:40 70.897132 -153.020446 126 28739ft 252kts
30-Jul-20 09:41 70.870345 -152.820777 130 28752ft 263kts
30-Jul-20 09:42 70.840937 -152.612551 129 28752ft 269kts
30-Jul-20 09:42 70.816299 -152.438557 129 28756ft 269kts
30-Jul-20 09:43 70.786203 -152.230486 130 28767ft 268kts
30-Jul-20 09:44 70.755371 -152.024390 130 28769ft 268kts
30-Jul-20 09:46 70.718841 -151.780313 131 28773ft 275kts
30-Jul-20 09:46 70.692076 -151.604786 131 28776ft 275kts
30-Jul-20 09:47 70.659674 -151.395568 131 28777ft 274kts
30-Jul-20 09:49 70.622043 -151.151932 130 28778ft 275kts
30-Jul-20 09:49 70.595495 -150.977669 129 28778ft 276kts
30-Jul-20 09:50 70.563967 -150.767571 129 28778ft 274kts
30-Jul-20 09:51 70.532816 -150.559747 129 28778ft 272kts
30-Jul-20 09:52 70.501244 -150.353280 129 28778ft 271kts
30-Jul-20 09:53 70.469480 -150.148600 129 28778ft 270kts
30-Jul-20 09:54 70.437308 -149.941830 129 28784ft 295kts
30-Jul-20 09:55 70.400048 -149.702331 127 28782ft 327kts
30-Jul-20 09:56 70.362461 -149.456795 127 28777ft 323kts
30-Jul-20 09:57 70.325274 -149.216645 128 28777ft 317kts
30-Jul-20 09:58 70.287788 -148.979964 127 28774ft 316kts
30-Jul-20 09:59 70.250937 -148.744022 127 28771ft 315kts
30-Jul-20 10:00 70.210823 -148.518863 134 28770ft 305kts
30-Jul-20 10:01 70.173202 -148.288288 121 28769ft 316kts
30-Jul-20 10:02 70.145792 -148.041131 116 28768ft 317kts
30-Jul-20 10:03 70.122377 -147.791200 115 28768ft 313kts
30-Jul-20 10:04 70.101471 -147.548821 114 28770ft 301kts
30-Jul-20 10:05 70.081030 -147.310425 115 28771ft 304kts
30-Jul-20 10:06 70.059064 -147.068038 115 28770ft 311kts
30-Jul-20 10:07 70.036743 -146.821851 114 28774ft 314kts
30-Jul-20 10:08 70.015690 -146.576455 112 28775ft 308kts
30-Jul-20 10:09 69.997755 -146.332618 109 28780ft 306kts
30-Jul-20 10:10 69.986084 -146.085104 101 28785ft 308kts
30-Jul-20 10:11 69.982853 -145.834781 96 28790ft 310kts
30-Jul-20 10:12 69.982901 -145.582870 95 28794ft 310kts
30-Jul-20 10:13 69.983810 -145.330703 94 28804ft 310kts
30-Jul-20 10:14 69.984781 -145.079318 94 28813ft 310kts
30-Jul-20 10:15 69.985554 -144.828050 94 28819ft 309kts
30-Jul-20 10:16 69.986078 -144.576453 94 28824ft 309kts
30-Jul-20 10:17 69.986353 -144.325470 94 28829ft 310kts
30-Jul-20 10:18 69.986420 -144.073035 94 28834ft 310kts
30-Jul-20 10:19 69.986396 -143.821451 94 28838ft 310kts
30-Jul-20 10:20 69.986532 -143.568321 94 28842ft 311kts
30-Jul-20 10:21 69.987425 -143.316661 92 28845ft 311kts
30-Jul-20 10:22 69.987926 -143.065376 110 28848ft 303kts
30-Jul-20 10:23 69.957144 -142.842399 123 28854ft 294kts
30-Jul-20 10:24 69.923937 -142.624174 122 28856ft 295kts
30-Jul-20 10:25 69.891581 -142.404621 121 28860ft 295kts
30-Jul-20 10:26 69.859325 -142.184333 121 28864ft 296kts
30-Jul-20 10:27 69.824905 -141.957152 122 28871ft 318kts
30-Jul-20 10:28 69.787986 -141.721130 122 28871ft 323kts
30-Jul-20 10:29 69.751196 -141.483474 121 28874ft 323kts
30-Jul-20 10:30 69.714648 -141.246042 121 28877ft 324kts
30-Jul-20 10:31 69.677915 -141.008450 121 28880ft 324kts
30-Jul-20 10:32 69.641114 -140.772378 121 28885ft 324kts
30-Jul-20 10:33 69.603897 -140.536369 121 28887ft 324kts
30-Jul-20 10:34 69.566379 -140.301316 121 28889ft 324kts
30-Jul-20 10:35 69.528511 -140.066794 122 28891ft 325kts
30-Jul-20 10:36 69.490203 -139.832748 122 28894ft 326kts
30-Jul-20 10:37 69.451336 -139.598197 122 28857ft 326kts
30-Jul-20 10:38 69.412455 -139.365602 122 28855ft 326kts
30-Jul-20 10:39 69.373242 -139.133408 122 28854ft 325kts
30-Jul-20 10:40 69.333956 -138.903217 122 28852ft 325kts
30-Jul-20 10:41 69.294197 -138.673047 122 28850ft 325kts
30-Jul-20 10:42 69.254101 -138.443569 122 28848ft 325kts
30-Jul-20 10:43 69.213856 -138.215800 122 28846ft 324kts
30-Jul-20 10:44 69.173303 -137.988666 122 28843ft 325kts
30-Jul-20 10:45 69.132179 -137.761475 122 28842ft 326kts
30-Jul-20 10:46 69.090824 -137.535604 122 28840ft 326kts
30-Jul-20 10:47 69.049200 -137.310318 122 28839ft 325kts
30-Jul-20 10:48 69.007326 -137.085585 123 28839ft 325kts
30-Jul-20 10:49 68.965396 -136.862818 123 28819ft 326kts
30-Jul-20 10:50 68.919642 -136.629979 124 27314ft 352kts
30-Jul-20 10:51 68.872842 -136.395275 123 26263ft 346kts
30-Jul-20 10:52 68.827784 -136.163724 123 25164ft 340kts
30-Jul-20 10:53 68.782539 -135.934455 123 23563ft 341kts
30-Jul-20 10:54 68.737844 -135.703401 123 21864ft 339kts
30-Jul-20 10:55 68.692556 -135.477835 123 20163ft 333kts
30-Jul-20 10:56 68.648216 -135.256273 122 18460ft 327kts
30-Jul-20 10:57 68.604988 -135.040178 122 16760ft 319kts
30-Jul-20 10:58 68.562854 -134.830161 122 15062ft 311kts
30-Jul-20 10:59 68.521700 -134.626374 122 13364ft 303kts
30-Jul-20 11:00 68.481332 -134.427676 122 11657ft 295kts
30-Jul-20 11:01 68.441945 -134.235014 121 9948ft 287kts
30-Jul-20 11:02 68.403722 -134.048296 120 8260ft 279kts
30-Jul-20 11:03 68.366572 -133.866355 121 6569ft 269kts
30-Jul-20 11:04 68.331464 -133.688471 115 4793ft 258kts
30-Jul-20 11:05 68.327521 -133.499592 81 2131ft 226kts
30-Jul-20 11:06 68.330866 -133.375001 143 902ft 108kts
30-Jul-20 11:07 68.306725 -133.411583 236 596ft 113kts
30-Jul-20 11:08 68.303380 -133.492290 261 228ft 79kts
30-Jul-20 11:09 68.304273 -133.496716 356 228ft 0kts
30-Jul-20 11:10 68.305775 -133.496389 355 228ft 2kts
30-Jul-20 11:11 68.305857 -133.496407 355 228ft 0kts
30-Jul-20 11:12 68.305858 -133.496407 355 228ft 0kts
30-Jul-20 11:13 68.305859 -133.496407 355 228ft 0kts
30-Jul-20 11:14 68.305860 -133.496408 355 228ft 0kts
30-Jul-20 11:15 68.305861 -133.496408 355 228ft 0kts
30-Jul-20 11:16 68.305861 -133.496408 355 228ft 0kts
30-Jul-20 11:17 68.305861 -133.496408 355 228ft 0kts
30-Jul-20 11:19 68.305861 -133.496408 355 228ft 0kts
30-Jul-20 11:20 68.305861 -133.496408 355 228ft 0kts
30-Jul-20 11:21 68.305861 -133.496408 355 228ft 0kts
30-Jul-20 11:22 68.305861 -133.496408 355 228ft 0kts
30-Jul-20 11:23 68.305861 -133.496408 355 228ft 0kts
30-Jul-20 11:24 68.305861 -133.496408 355 228ft 0kts
30-Jul-20 11:25 68.305861 -133.496408 355 228ft 0kts

Navigation Log

Ident Type
Flight plan parsing failed, navigation log unavailable